Time;durP1;ratioP1;P1;durP2;ratioP2;P2;SDS_P1;SDS_P2;PMS_P1;PMS_P2;Temp;Humidity;BMP_temperature;BMP_pressure;BME280_temperature;BME280_humidity;BME280_pressure;Samples;Min_cycle;Max_cycle;Signal;HPM_P1;HPM_P2
2023/02/05 00:01:28;;;;;;;15.18;7.47;;;-0.30;99.90;;;;;;5050065;28;20025;-46
2023/02/05 00:03:54;;;;;;;10.80;6.78;;;-0.30;99.90;;;;;;5056548;28;20503;-47
2023/02/05 00:06:20;;;;;;;9.68;6.53;;;-0.30;99.90;;;;;;5050875;28;20056;-48
2023/02/05 00:08:45;;;;;;;12.80;6.03;;;-0.30;99.90;;;;;;5050594;28;20028;-47
2023/02/05 00:11:11;;;;;;;7.80;5.38;;;-0.40;99.90;;;;;;5051150;28;20024;-47
2023/02/05 00:13:39;;;;;;;8.32;5.32;;;-0.40;99.90;;;;;;5049022;28;20021;-48
2023/02/05 00:16:10;;;;;;;10.73;5.80;;;-0.40;99.90;;;;;;5054523;28;20029;-48
2023/02/05 00:18:36;;;;;;;7.32;4.82;;;-0.40;99.90;;;;;;5053513;28;20115;-48
2023/02/05 00:21:02;;;;;;;8.38;4.47;;;-0.40;99.90;;;;;;5060729;28;20101;-49
2023/02/05 00:23:28;;;;;;;9.88;5.07;;;-0.40;99.90;;;;;;5060751;28;20029;-49
2023/02/05 00:25:54;;;;;;;8.07;4.40;;;-0.40;99.90;;;;;;5062142;28;20047;-49
2023/02/05 00:28:19;;;;;;;8.10;4.85;;;-0.40;99.90;;;;;;5066166;28;20049;-48
2023/02/05 00:30:45;;;;;;;8.40;4.22;;;-0.40;99.90;;;;;;5062757;28;20021;-48
2023/02/05 00:33:10;;;;;;;6.70;4.45;;;-0.40;99.90;;;;;;5066532;28;20017;-48
2023/02/05 00:35:36;;;;;;;10.00;5.35;;;-0.40;99.90;;;;;;5061985;28;20025;-52
2023/02/05 00:38:01;;;;;;;7.60;4.30;;;-0.40;99.90;;;;;;5063969;28;20033;-50
2023/02/05 00:40:27;;;;;;;9.85;4.53;;;-0.40;99.90;;;;;;5061382;28;20102;-48
2023/02/05 00:42:52;;;;;;;7.80;4.63;;;-0.40;99.90;;;;;;5070930;28;20108;-48
2023/02/05 00:45:18;;;;;;;7.75;4.10;;;-0.40;99.90;;;;;;5070726;28;20048;-48
2023/02/05 00:47:43;;;;;;;8.43;4.22;;;-0.40;99.90;;;;;;5070364;28;20075;-48
2023/02/05 00:50:09;;;;;;;6.57;4.07;;;-0.40;99.90;;;;;;5070436;28;20036;-47
2023/02/05 00:52:34;;;;;;;8.80;4.78;;;-0.40;99.90;;;;;;5061279;28;20390;-52
2023/02/05 00:55:00;;;;;;;7.95;4.05;;;-0.50;99.90;;;;;;5065160;28;20020;-49
2023/02/05 00:57:25;;;;;;;5.38;4.15;;;-0.50;99.90;;;;;;5070350;28;20127;-50
2023/02/05 00:59:51;;;;;;;7.93;4.57;;;-0.50;99.90;;;;;;5060697;28;20025;-48
2023/02/05 01:02:22;;;;;;;11.98;4.75;;;-0.50;99.90;;;;;;5067844;28;20500;-46
2023/02/05 01:04:51;;;;;;;10.25;5.50;;;-0.50;99.90;;;;;;5070097;28;20027;-49
2023/02/05 01:07:18;;;;;;;8.10;4.10;;;-0.50;99.90;;;;;;5069930;28;20021;-50
2023/02/05 01:09:44;;;;;;;9.10;4.70;;;-0.60;99.90;;;;;;5066429;28;20425;-50
2023/02/05 01:12:09;;;;;;;5.63;3.92;;;-0.60;99.90;;;;;;5058240;28;20119;-48
2023/02/05 01:14:35;;;;;;;11.07;4.30;;;-0.60;99.90;;;;;;5069679;28;20067;-47
2023/02/05 01:17:01;;;;;;;7.95;3.97;;;-0.60;99.90;;;;;;5068725;28;20020;-49
2023/02/05 01:19:26;;;;;;;8.10;4.00;;;-0.60;99.90;;;;;;5070334;28;20020;-48
2023/02/05 01:21:52;;;;;;;5.43;3.90;;;-0.50;99.90;;;;;;5069818;28;20500;-49
2023/02/05 01:24:17;;;;;;;7.80;4.18;;;-0.60;99.90;;;;;;5069907;28;20429;-47
2023/02/05 01:26:44;;;;;;;6.20;3.90;;;-0.60;99.90;;;;;;5067206;28;20097;-37
2023/02/05 01:29:10;;;;;;;7.25;4.15;;;-0.60;99.90;;;;;;5050327;28;20383;-37
2023/02/05 01:31:35;;;;;;;8.40;5.05;;;-0.60;99.90;;;;;;5050356;28;20029;-37
2023/02/05 01:34:01;;;;;;;11.10;4.88;;;-0.60;99.90;;;;;;5050410;28;20037;-37
2023/02/05 01:36:26;;;;;;;6.13;4.15;;;-0.60;99.90;;;;;;5049249;28;20029;-37
2023/02/05 01:38:53;;;;;;;9.88;4.55;;;-0.70;99.90;;;;;;5049751;28;20097;-47
2023/02/05 01:41:19;;;;;;;6.85;4.07;;;-0.70;99.90;;;;;;5051058;28;20167;-47
2023/02/05 01:44:08;;;;;;;6.93;4.18;;;-0.70;99.90;;;;;;5062477;28;20028;-37
2023/02/05 01:46:35;;;;;;;7.00;4.03;;;-0.70;99.90;;;;;;5069074;28;20154;-37
2023/02/05 01:49:03;;;;;;;9.45;5.47;;;-0.70;99.90;;;;;;5069696;28;20031;-37
2023/02/05 01:51:31;;;;;;;9.00;4.97;;;-0.70;99.90;;;;;;5069256;28;20035;-38
2023/02/05 01:53:56;;;;;;;8.43;4.85;;;-0.70;99.90;;;;;;5069574;28;20582;-37
2023/02/05 01:56:28;;;;;;;8.60;4.95;;;-0.80;99.90;;;;;;5068789;28;20032;-37
2023/02/05 01:59:07;;;;;;;10.10;5.53;;;-0.80;99.90;;;;;;5069146;28;20020;-37
2023/02/05 02:01:34;;;;;;;7.00;4.25;;;-0.80;99.90;;;;;;5069571;28;20474;-38
2023/02/05 02:04:03;;;;;;;7.50;4.63;;;-0.80;99.90;;;;;;5069236;28;20107;-37
2023/02/05 02:06:33;;;;;;;6.53;4.47;;;-0.80;99.90;;;;;;5068359;28;20021;-37
2023/02/05 02:08:59;;;;;;;7.87;5.20;;;-0.80;99.90;;;;;;5069114;28;20464;-37
2023/02/05 02:11:27;;;;;;;8.13;4.57;;;-0.80;99.90;;;;;;5060319;28;20017;-37
2023/02/05 02:13:55;;;;;;;9.20;4.95;;;-0.80;99.90;;;;;;5063196;28;20491;-37
2023/02/05 02:16:22;;;;;;;6.93;4.90;;;-0.90;99.90;;;;;;5068451;28;20100;-38
2023/02/05 02:18:48;;;;;;;8.98;4.78;;;-0.90;99.90;;;;;;5068862;28;20091;-37
2023/02/05 02:21:18;;;;;;;8.30;5.38;;;-0.90;99.90;;;;;;5068991;28;20046;-37
2023/02/05 02:24:11;;;;;;;7.28;5.20;;;-0.90;99.90;;;;;;5069257;28;20075;-37
2023/02/05 02:27:04;;;;;;;6.20;4.32;;;-0.90;99.90;;;;;;5068687;28;20028;-37
2023/02/05 02:29:32;;;;;;;8.40;5.05;;;-0.90;99.90;;;;;;5069356;28;20020;-37
2023/02/05 02:32:32;;;;;;;7.32;4.57;;;-0.90;99.90;;;;;;5069041;28;20032;-38
2023/02/05 02:35:15;;;;;;;7.85;4.13;;;-0.90;99.90;;;;;;5063753;28;20037;-38
2023/02/05 02:38:19;;;;;;;7.80;4.90;;;-0.90;99.90;;;;;;5068678;28;20027;-38
2023/02/05 02:40:50;;;;;;;8.07;4.80;;;-0.90;99.90;;;;;;5059818;28;20029;-38
2023/02/05 02:43:23;;;;;;;8.48;5.05;;;-1.00;99.90;;;;;;5060323;28;20465;-38
2023/02/05 02:45:54;;;;;;;8.35;4.72;;;-1.00;99.90;;;;;;5068145;28;20500;-38
2023/02/05 02:48:23;;;;;;;6.80;4.90;;;-1.00;99.90;;;;;;5068757;28;20478;-38
2023/02/05 02:50:52;;;;;;;6.38;4.28;;;-1.10;99.90;;;;;;5068624;28;20477;-38
2023/02/05 02:53:29;;;;;;;5.75;3.83;;;-1.10;99.90;;;;;;5066755;28;20035;-37
2023/02/05 02:55:57;;;;;;;10.23;5.55;;;-1.00;99.90;;;;;;5068194;28;20115;-38
2023/02/05 02:58:28;;;;;;;9.70;4.43;;;-1.00;99.90;;;;;;5068572;28;20020;-38
2023/02/05 03:00:55;;;;;;;7.43;4.70;;;-1.10;99.90;;;;;;5058007;28;20037;-38
2023/02/05 03:03:24;;;;;;;8.40;4.63;;;-1.10;99.90;;;;;;5048663;28;20024;-38
2023/02/05 03:05:52;;;;;;;8.80;4.60;;;-1.10;99.90;;;;;;5048210;28;20017;-38
2023/02/05 03:08:46;;;;;;;11.00;5.47;;;-1.10;99.90;;;;;;5048088;28;20495;-38
2023/02/05 03:11:13;;;;;;;7.65;5.00;;;-1.10;99.90;;;;;;5056473;28;20017;-39
2023/02/05 03:13:40;;;;;;;8.70;4.60;;;-1.20;99.90;;;;;;5060666;28;20094;-38
2023/02/05 03:16:06;;;;;;;8.25;4.53;;;-1.20;99.90;;;;;;5051847;28;20061;-38
2023/02/05 03:18:31;;;;;;;7.25;4.95;;;-1.20;99.90;;;;;;5050877;28;20028;-38
2023/02/05 03:21:01;;;;;;;6.57;3.47;;;-1.20;99.90;;;;;;5052686;28;20343;-38
2023/02/05 03:23:28;;;;;;;8.52;4.65;;;-1.20;99.90;;;;;;5052509;28;20021;-44
2023/02/05 03:25:54;;;;;;;8.77;4.22;;;-1.20;99.90;;;;;;5052241;28;20241;-47
2023/02/05 03:28:21;;;;;;;10.30;5.18;;;-1.20;99.90;;;;;;5052382;28;20394;-47
2023/02/05 03:31:12;;;;;;;9.10;3.97;;;-1.20;99.90;;;;;;5052629;28;20036;-48
2023/02/05 03:34:17;;;;;;;7.10;4.15;;;-1.20;99.90;;;;;;5052818;28;20013;-38
2023/02/05 03:37:09;;;;;;;7.00;4.20;;;-1.10;99.90;;;;;;5038328;28;20055;-38
2023/02/05 03:40:13;;;;;;;5.78;3.60;;;-1.10;99.90;;;;;;5050905;28;20021;-38
2023/02/05 03:43:08;;;;;;;6.85;4.00;;;-1.10;99.90;;;;;;5051023;28;20478;-38
2023/02/05 03:45:58;;;;;;;9.02;4.28;;;-1.10;99.90;;;;;;5051886;28;20059;-38
2023/02/05 03:48:31;;;;;;;9.68;4.53;;;-1.10;99.90;;;;;;5051885;28;20033;-38
2023/02/05 03:51:24;;;;;;;8.68;5.18;;;-1.10;99.90;;;;;;5051639;28;20021;-38
2023/02/05 03:54:13;;;;;;;6.88;4.13;;;-1.00;99.90;;;;;;5051815;28;20028;-38
2023/02/05 03:56:46;;;;;;;10.15;4.93;;;-1.00;99.90;;;;;;5051072;28;20364;-48
2023/02/05 03:59:15;;;;;;;6.90;3.60;;;-1.00;99.90;;;;;;5051709;28;20066;-48
2023/02/05 04:01:41;;;;;;;9.77;4.35;;;-1.00;99.90;;;;;;5051574;28;20383;-48
2023/02/05 04:04:07;;;;;;;7.07;4.45;;;-0.90;99.90;;;;;;5052198;28;20025;-47
2023/02/05 04:06:33;;;;;;;7.68;4.38;;;-0.90;99.90;;;;;;5051306;28;20131;-48
2023/02/05 04:08:58;;;;;;;8.52;4.60;;;-0.80;99.90;;;;;;5050214;28;20657;-48
2023/02/05 04:11:24;;;;;;;6.55;4.30;;;-0.80;99.90;;;;;;5058040;28;20106;-47
2023/02/05 04:13:49;;;;;;;8.00;3.78;;;-0.80;99.90;;;;;;5064770;28;20039;-48
2023/02/05 04:16:15;;;;;;;8.25;4.05;;;-0.70;99.90;;;;;;5069413;28;20025;-38
2023/02/05 04:18:40;;;;;;;6.90;4.47;;;-0.70;99.90;;;;;;5071326;28;20020;-38
2023/02/05 04:21:06;;;;;;;8.35;4.20;;;-0.70;99.90;;;;;;5051206;28;20427;-38
2023/02/05 04:23:31;;;;;;;9.48;4.60;;;-0.60;99.90;;;;;;5050511;28;20021;-47
2023/02/05 04:25:57;;;;;;;8.38;4.30;;;-0.60;99.90;;;;;;5050714;28;20021;-49
2023/02/05 04:28:22;;;;;;;9.88;3.92;;;-0.60;99.90;;;;;;5050674;28;20025;-38
2023/02/05 04:30:48;;;;;;;8.50;4.15;;;-0.60;99.90;;;;;;5049308;28;20043;-49
2023/02/05 04:33:13;;;;;;;9.38;4.95;;;-0.50;99.90;;;;;;5051082;28;20021;-50
2023/02/05 04:35:39;;;;;;;8.88;4.82;;;-0.50;99.90;;;;;;5050279;28;20362;-50
2023/02/05 04:38:05;;;;;;;5.85;4.40;;;-0.50;99.90;;;;;;5050373;28;20466;-38
2023/02/05 04:40:30;;;;;;;8.52;5.22;;;-0.40;99.90;;;;;;5046654;28;20033;-48
2023/02/05 04:42:56;;;;;;;8.73;4.68;;;-0.50;99.90;;;;;;5062610;28;20035;-48
2023/02/05 04:45:21;;;;;;;10.93;5.07;;;-0.50;99.90;;;;;;5065766;28;20028;-38
2023/02/05 04:47:47;;;;;;;7.05;4.20;;;-0.50;99.90;;;;;;5050352;28;20039;-38
2023/02/05 04:50:13;;;;;;;7.90;4.90;;;-0.50;99.90;;;;;;5050454;28;20025;-42
2023/02/05 04:52:39;;;;;;;8.07;4.38;;;-0.50;99.90;;;;;;5052373;28;20021;-48
2023/02/05 04:55:05;;;;;;;8.90;4.63;;;-0.50;99.90;;;;;;5049685;28;20021;-49
2023/02/05 04:57:30;;;;;;;8.50;4.32;;;-0.50;99.90;;;;;;5050018;28;20092;-38
2023/02/05 04:59:56;;;;;;;5.63;3.95;;;-0.50;99.90;;;;;;5050625;28;20024;-47
2023/02/05 05:02:23;;;;;;;11.27;5.20;;;-0.50;99.90;;;;;;5050062;28;20486;-47
2023/02/05 05:04:48;;;;;;;8.65;5.10;;;-0.40;99.90;;;;;;5049865;28;20489;-38
2023/02/05 05:07:15;;;;;;;10.07;4.85;;;-0.40;99.90;;;;;;5049985;28;20055;-38
2023/02/05 05:09:41;;;;;;;8.18;5.15;;;-0.40;99.90;;;;;;5049943;28;20013;-38
2023/02/05 05:12:06;;;;;;;9.82;5.15;;;-0.40;99.90;;;;;;5051338;28;20502;-49
2023/02/05 05:14:32;;;;;;;9.25;5.18;;;-0.40;99.90;;;;;;5052290;28;20028;-49
2023/02/05 05:16:57;;;;;;;10.20;5.53;;;-0.40;99.90;;;;;;5050216;28;20413;-38
2023/02/05 05:19:23;;;;;;;10.52;6.03;;;-0.40;99.90;;;;;;5050352;28;20433;-38
2023/02/05 05:21:48;;;;;;;9.38;4.82;;;-0.40;99.90;;;;;;5049824;28;20198;-38
2023/02/05 05:24:14;;;;;;;11.00;5.13;;;-0.40;99.90;;;;;;5050102;28;20036;-38
2023/02/05 05:26:42;;;;;;;9.48;4.72;;;-0.40;99.90;;;;;;5049565;28;20439;-38
2023/02/05 05:29:10;;;;;;;9.10;4.88;;;-0.40;99.90;;;;;;5049752;28;20025;-38
2023/02/05 05:31:35;;;;;;;12.43;5.60;;;-0.40;99.90;;;;;;5049664;28;20049;-38
2023/02/05 05:34:01;;;;;;;10.95;4.65;;;-0.40;99.90;;;;;;5049329;28;20107;-38
2023/02/05 05:36:26;;;;;;;7.47;4.60;;;-0.40;99.90;;;;;;5049112;28;20166;-38
2023/02/05 05:38:52;;;;;;;8.90;5.15;;;-0.30;99.90;;;;;;5049427;28;20359;-38
2023/02/05 05:44:08;;;;;;;9.98;5.40;;;-0.30;99.90;;;;;;5058395;28;20115;-38
2023/02/05 05:46:34;;;;;;;10.05;5.20;;;-0.30;99.90;;;;;;5049268;28;20029;-38
2023/02/05 05:49:00;;;;;;;9.32;5.28;;;-0.20;99.90;;;;;;5057713;28;20024;-38
2023/02/05 05:51:27;;;;;;;11.23;5.43;;;-0.20;99.90;;;;;;5067977;28;20023;-38
2023/02/05 05:53:54;;;;;;;9.02;4.63;;;-0.20;99.90;;;;;;5069242;28;20024;-38
2023/02/05 05:56:20;;;;;;;11.07;5.10;;;-0.20;99.90;;;;;;5067434;28;20017;-38
2023/02/05 05:58:47;;;;;;;9.05;4.85;;;-0.20;99.90;;;;;;5069250;28;20096;-38
2023/02/05 06:01:15;;;;;;;7.38;5.00;;;-0.10;99.90;;;;;;5069642;28;20021;-38
2023/02/05 06:03:40;;;;;;;8.10;4.50;;;-0.10;99.90;;;;;;5069330;28;20024;-38
2023/02/05 06:06:07;;;;;;;6.88;4.30;;;-0.10;99.90;;;;;;5066784;28;20535;-38
2023/02/05 06:08:33;;;;;;;8.75;5.32;;;-0.10;99.90;;;;;;5059924;28;20029;-38
2023/02/05 06:10:59;;;;;;;7.97;4.32;;;-0.10;99.90;;;;;;5069229;28;20074;-38
2023/02/05 06:13:24;;;;;;;9.02;4.55;;;-0.10;99.90;;;;;;5068982;28;20052;-38
2023/02/05 06:15:51;;;;;;;8.32;5.15;;;-0.10;99.90;;;;;;5068888;28;20048;-38
2023/02/05 06:18:17;;;;;;;7.50;5.07;;;-0.10;99.90;;;;;;5069411;28;20032;-38
2023/02/05 06:20:43;;;;;;;6.50;4.43;;;-0.10;99.90;;;;;;5064745;28;20487;-38
2023/02/05 06:23:09;;;;;;;7.40;4.68;;;-0.10;99.90;;;;;;5057109;28;20100;-38
2023/02/05 06:25:34;;;;;;;6.72;4.47;;;0.00;99.90;;;;;;5068119;28;20103;-38
2023/02/05 06:28:00;;;;;;;10.52;5.28;;;-0.10;99.90;;;;;;5069089;28;20124;-38
2023/02/05 06:30:26;;;;;;;9.05;4.68;;;0.00;99.90;;;;;;5067564;28;20520;-38
2023/02/05 06:32:51;;;;;;;7.25;4.95;;;0.00;99.90;;;;;;5060779;28;20012;-38
2023/02/05 06:35:17;;;;;;;8.40;4.32;;;0.00;99.90;;;;;;5068374;28;20073;-38
2023/02/05 06:37:43;;;;;;;8.55;4.53;;;0.00;99.90;;;;;;5068581;28;20375;-38
2023/02/05 06:40:09;;;;;;;9.73;4.30;;;0.10;99.90;;;;;;5068721;28;20076;-38
2023/02/05 06:42:35;;;;;;;13.65;4.80;;;0.10;99.90;;;;;;5069274;28;20456;-38
2023/02/05 06:45:01;;;;;;;8.52;4.97;;;0.10;99.90;;;;;;5068260;28;20178;-38
2023/02/05 06:47:26;;;;;;;11.70;4.82;;;0.10;99.90;;;;;;5067921;28;20509;-38
2023/02/05 06:49:52;;;;;;;9.75;4.63;;;0.20;99.90;;;;;;5068642;28;20051;-38
2023/02/05 06:52:17;;;;;;;9.20;4.88;;;0.20;99.90;;;;;;5068449;28;20035;-38
2023/02/05 06:54:43;;;;;;;9.98;5.50;;;0.20;99.90;;;;;;5068424;28;20027;-38
2023/02/05 06:57:10;;;;;;;9.35;5.63;;;0.30;99.90;;;;;;5068724;28;20473;-38
2023/02/05 06:59:35;;;;;;;5.80;4.25;;;0.30;99.90;;;;;;5068503;28;20074;-39
2023/02/05 07:02:01;;;;;;;7.60;4.97;;;0.30;99.90;;;;;;5060718;28;20021;-38
2023/02/05 07:04:29;;;;;;;10.10;4.95;;;0.30;99.90;;;;;;5047657;28;20039;-39
2023/02/05 07:06:55;;;;;;;8.15;4.85;;;0.40;99.90;;;;;;5049346;28;20442;-41
2023/02/05 07:09:21;;;;;;;9.95;5.78;;;0.40;99.90;;;;;;5050252;28;20056;-39
2023/02/05 07:11:46;;;;;;;10.02;5.00;;;0.40;99.90;;;;;;5048291;28;20051;-39
2023/02/05 07:14:12;;;;;;;12.73;5.75;;;0.50;99.90;;;;;;5047521;28;20047;-38
2023/02/05 07:16:37;;;;;;;11.23;5.80;;;0.40;99.90;;;;;;5051119;28;20564;-38
2023/02/05 07:19:03;;;;;;;10.43;5.70;;;0.40;99.90;;;;;;5048479;28;20021;-39
2023/02/05 07:21:28;;;;;;;12.25;6.13;;;0.40;99.90;;;;;;5048212;28;20523;-39
2023/02/05 07:23:54;;;;;;;9.43;5.38;;;0.50;99.90;;;;;;5057792;28;20685;-39
2023/02/05 07:26:19;;;;;;;8.75;5.00;;;0.50;99.90;;;;;;5066802;28;20089;-39
2023/02/05 07:28:45;;;;;;;10.85;5.18;;;0.60;99.90;;;;;;5063010;28;20021;-38
2023/02/05 07:31:17;;;;;;;10.77;5.85;;;0.60;99.90;;;;;;5057789;28;20709;-38
2023/02/05 07:33:44;;;;;;;10.80;6.05;;;0.70;99.90;;;;;;5068864;28;20094;-38
2023/02/05 07:36:12;;;;;;;9.98;5.85;;;0.70;99.90;;;;;;5050614;28;20021;-39
2023/02/05 07:38:37;;;;;;;13.20;5.65;;;0.70;99.90;;;;;;5048923;28;20028;-38
2023/02/05 07:41:08;;;;;;;9.68;5.53;;;0.70;99.90;;;;;;5048751;28;20021;-38
2023/02/05 07:43:34;;;;;;;10.70;5.13;;;0.80;99.90;;;;;;5053272;28;20017;-38
2023/02/05 07:46:03;;;;;;;8.15;4.93;;;0.90;99.90;;;;;;5048144;28;20021;-39
2023/02/05 07:48:29;;;;;;;14.10;5.57;;;0.90;99.90;;;;;;5049699;28;20044;-38
2023/02/05 07:50:54;;;;;;;10.20;4.80;;;0.90;99.90;;;;;;5055413;28;20028;-38
2023/02/05 07:53:20;;;;;;;9.40;5.30;;;0.90;99.90;;;;;;5066955;28;20027;-38
2023/02/05 07:55:46;;;;;;;11.20;5.75;;;0.90;99.90;;;;;;5053899;28;20449;-38
2023/02/05 07:58:12;;;;;;;10.48;5.43;;;0.80;99.90;;;;;;5051822;28;20147;-38
2023/02/05 08:00:38;;;;;;;7.90;5.13;;;0.80;99.90;;;;;;5051257;28;20028;-38
2023/02/05 08:03:04;;;;;;;10.55;5.47;;;0.90;99.90;;;;;;5059463;28;20021;-38
2023/02/05 08:05:29;;;;;;;17.90;5.93;;;0.90;99.90;;;;;;5063239;28;20135;-38
2023/02/05 08:07:55;;;;;;;7.90;5.30;;;0.90;99.90;;;;;;5070817;28;20024;-39
2023/02/05 08:10:20;;;;;;;9.80;4.97;;;0.90;99.90;;;;;;5062222;28;20037;-38
2023/02/05 08:12:46;;;;;;;6.38;4.75;;;1.00;99.90;;;;;;5071277;28;20086;-38
2023/02/05 08:15:12;;;;;;;11.48;5.28;;;1.00;99.90;;;;;;5064032;28;20017;-37
2023/02/05 08:17:37;;;;;;;10.23;5.68;;;1.00;99.90;;;;;;5056121;28;20056;-37
2023/02/05 08:20:06;;;;;;;11.02;6.82;;;1.00;99.90;;;;;;5063924;28;20051;-38
2023/02/05 08:22:34;;;;;;;8.95;5.53;;;1.10;99.90;;;;;;5064286;28;20358;-38
2023/02/05 08:24:59;;;;;;;8.45;5.80;;;1.20;99.90;;;;;;5064555;28;20347;-38
2023/02/05 08:27:25;;;;;;;8.00;5.75;;;1.20;99.90;;;;;;5064504;28;20031;-38
2023/02/05 08:29:51;;;;;;;10.93;6.20;;;1.20;99.90;;;;;;5065082;28;20028;-38
2023/02/05 08:32:16;;;;;;;11.80;6.07;;;1.20;99.90;;;;;;5063120;28;20021;-38
2023/02/05 08:34:42;;;;;;;7.82;5.65;;;1.20;99.90;;;;;;5068593;28;20055;-38
2023/02/05 08:37:07;;;;;;;15.05;5.82;;;1.20;99.90;;;;;;5054139;28;20037;-38
2023/02/05 08:39:33;;;;;;;11.50;6.45;;;1.30;99.90;;;;;;5050128;28;20027;-38
2023/02/05 08:41:59;;;;;;;10.15;5.65;;;1.40;99.90;;;;;;5051548;28;20104;-38
2023/02/05 08:44:24;;;;;;;9.18;5.43;;;1.40;99.90;;;;;;5053451;28;20025;-38
2023/02/05 08:46:50;;;;;;;9.30;5.47;;;1.40;99.90;;;;;;5064918;28;20464;-38
2023/02/05 08:49:15;;;;;;;8.10;5.70;;;1.50;99.90;;;;;;5065837;28;20118;-38
2023/02/05 08:51:42;;;;;;;8.02;5.38;;;1.60;99.90;;;;;;5062961;28;20663;-38
2023/02/05 08:54:11;;;;;;;9.98;5.85;;;1.60;99.90;;;;;;5070348;28;20063;-38
2023/02/05 08:56:41;;;;;;;11.93;5.80;;;1.60;99.90;;;;;;5061491;28;20031;-38
2023/02/05 08:59:08;;;;;;;9.50;5.43;;;1.80;99.90;;;;;;5069806;28;20021;-38
2023/02/05 09:01:39;;;;;;;10.73;6.10;;;1.90;99.90;;;;;;5065567;28;20044;-40
2023/02/05 09:04:12;;;;;;;13.13;6.30;;;2.00;99.90;;;;;;5062805;28;20472;-39
2023/02/05 09:06:38;;;;;;;10.20;6.05;;;2.00;99.90;;;;;;5071061;28;20027;-38
2023/02/05 09:09:03;;;;;;;9.48;5.63;;;2.00;99.90;;;;;;5058373;28;20021;-39
2023/02/05 09:11:29;;;;;;;8.43;5.25;;;1.90;99.90;;;;;;5045464;28;20104;-39
2023/02/05 09:13:56;;;;;;;10.07;5.95;;;2.00;99.90;;;;;;5049787;28;20032;-38
2023/02/05 09:16:22;;;;;;;9.38;6.65;;;2.00;99.90;;;;;;5050613;28;20021;-38
2023/02/05 09:18:48;;;;;;;9.77;6.15;;;2.10;99.90;;;;;;5054280;28;20112;-38
2023/02/05 09:21:14;;;;;;;10.93;7.15;;;2.10;99.90;;;;;;5059922;28;20096;-38
2023/02/05 09:23:41;;;;;;;10.27;6.60;;;2.10;99.90;;;;;;5048520;28;20029;-38
2023/02/05 09:26:08;;;;;;;15.00;6.68;;;2.10;99.90;;;;;;5049505;28;20078;-38
2023/02/05 09:28:34;;;;;;;10.23;6.50;;;2.00;99.90;;;;;;5049983;28;20028;-39
2023/02/05 09:31:06;;;;;;;11.18;6.95;;;2.10;99.90;;;;;;5049862;28;20033;-38
2023/02/05 09:33:31;;;;;;;9.95;6.53;;;2.10;99.90;;;;;;5049572;28;20499;-38
2023/02/05 09:35:57;;;;;;;10.82;6.72;;;2.20;99.90;;;;;;5048996;28;20029;-38
2023/02/05 09:38:23;;;;;;;9.80;6.80;;;2.30;99.90;;;;;;5058864;28;20422;-39
2023/02/05 09:41:06;;;;;;;11.50;7.03;;;2.30;99.90;;;;;;5054159;28;20143;-38
2023/02/05 09:44:10;;;;;;;11.45;6.13;;;2.30;99.90;;;;;;5048253;28;20459;-38
2023/02/05 09:47:07;;;;;;;11.15;8.23;;;2.30;99.90;;;;;;5049009;28;20024;-38
2023/02/05 09:50:10;;;;;;;11.05;5.15;;;2.50;99.90;;;;;;5049742;28;20082;-38
2023/02/05 09:52:38;;;;;;;10.90;5.70;;;2.60;99.90;;;;;;5049434;28;20477;-39
2023/02/05 09:55:21;;;;;;;9.20;6.65;;;2.70;99.90;;;;;;5048840;28;20025;-38
2023/02/05 09:57:50;;;;;;;10.52;6.38;;;2.70;99.90;;;;;;5047841;28;20035;-39
2023/02/05 10:00:26;;;;;;;9.32;6.05;;;2.70;99.90;;;;;;5048932;28;20055;-39
2023/02/05 10:03:00;;;;;;;9.60;5.90;;;2.80;99.90;;;;;;5048856;28;20180;-48
2023/02/05 10:05:31;;;;;;;9.30;5.43;;;2.90;99.90;;;;;;5048629;28;20028;-48
2023/02/05 10:08:24;;;;;;;10.18;5.80;;;2.80;99.90;;;;;;5055707;28;20375;-49
2023/02/05 10:10:54;;;;;;;6.95;5.50;;;3.00;99.90;;;;;;5044121;28;20271;-50
2023/02/05 10:13:38;;;;;;;10.68;5.68;;;3.10;99.90;;;;;;5048688;28;20037;-51
2023/02/05 10:16:32;;;;;;;9.85;6.45;;;3.20;99.90;;;;;;5048673;28;20025;-50
2023/02/05 10:19:30;;;;;;;11.88;7.35;;;3.20;99.90;;;;;;5048484;28;20031;-50
2023/02/05 10:21:58;;;;;;;9.88;6.03;;;3.20;99.90;;;;;;5028810;28;20024;-49
2023/02/05 10:24:27;;;;;;;13.43;6.57;;;3.20;99.90;;;;;;5050614;28;20031;-54
2023/02/05 10:27:16;;;;;;;10.13;6.45;;;3.30;99.90;;;;;;5060801;28;20028;-49
2023/02/05 10:30:13;;;;;;;9.88;6.78;;;3.40;99.90;;;;;;5058753;28;20308;-50
2023/02/05 10:32:57;;;;;;;8.35;5.78;;;3.40;99.90;;;;;;5060417;28;20038;-51
2023/02/05 10:35:54;;;;;;;10.73;5.85;;;3.50;99.90;;;;;;5056705;28;20462;-52
2023/02/05 10:38:23;;;;;;;7.88;5.78;;;3.40;99.90;;;;;;5045514;28;20045;-50
2023/02/05 10:40:52;;;;;;;10.35;6.68;;;3.50;99.90;;;;;;5066159;28;20020;-49
2023/02/05 10:43:47;;;;;;;12.57;6.20;;;3.40;99.90;;;;;;5066806;28;20032;-51
2023/02/05 10:46:14;;;;;;;9.95;6.13;;;3.40;99.90;;;;;;5047422;28;20052;-48
2023/02/05 10:48:53;;;;;;;11.52;6.28;;;3.50;99.90;;;;;;5050348;28;20111;-51
2023/02/05 10:51:26;;;;;;;9.23;5.82;;;3.50;99.90;;;;;;5049957;28;20018;-48
2023/02/05 10:53:52;;;;;;;11.40;6.85;;;3.50;99.90;;;;;;5048738;28;20020;-50
2023/02/05 10:56:18;;;;;;;9.10;5.43;;;3.50;99.90;;;;;;5050394;28;20432;-51
2023/02/05 10:58:59;;;;;;;9.18;6.18;;;3.50;99.90;;;;;;5058114;28;20024;-48
2023/02/05 11:01:27;;;;;;;8.90;6.18;;;3.50;99.90;;;;;;5056645;28;20401;-49
2023/02/05 11:03:57;;;;;;;8.20;5.78;;;3.50;99.90;;;;;;5062246;28;20027;-51
2023/02/05 11:06:25;;;;;;;11.80;6.93;;;3.40;99.90;;;;;;5058087;28;20025;-49
2023/02/05 11:08:51;;;;;;;13.68;6.35;;;3.40;99.90;;;;;;5065450;28;20032;-48
2023/02/05 11:11:30;;;;;;;9.18;5.93;;;3.50;99.90;;;;;;5054239;28;20052;-48
2023/02/05 11:13:58;;;;;;;10.60;6.55;;;3.50;99.90;;;;;;5066587;28;20029;-49
2023/02/05 11:16:35;;;;;;;15.18;6.75;;;3.60;99.90;;;;;;5047423;28;20021;-48
2023/02/05 11:19:01;;;;;;;9.95;5.78;;;3.60;99.90;;;;;;5059498;28;20058;-48
2023/02/05 11:22:06;;;;;;;8.70;5.57;;;3.60;99.90;;;;;;5054527;28;20112;-48
2023/02/05 11:24:38;;;;;;;7.80;5.57;;;3.70;99.90;;;;;;5052917;28;20047;-49
2023/02/05 11:27:26;;;;;;;11.13;4.90;;;3.70;99.90;;;;;;5060450;28;20079;-48
2023/02/05 11:29:53;;;;;;;8.65;5.43;;;3.70;99.90;;;;;;5067559;28;20030;-48
2023/02/05 11:32:39;;;;;;;9.27;5.93;;;3.60;99.90;;;;;;5066392;28;20188;-48
2023/02/05 11:35:22;;;;;;;9.68;6.13;;;3.70;99.90;;;;;;5059427;28;20051;-49
2023/02/05 11:38:09;;;;;;;9.13;5.32;;;3.80;99.90;;;;;;5063848;28;20086;-48
2023/02/05 11:40:35;;;;;;;11.25;5.75;;;3.80;99.90;;;;;;5066502;28;20021;-47
2023/02/05 11:43:24;;;;;;;12.60;6.32;;;3.90;99.90;;;;;;5064058;28;20036;-48
2023/02/05 11:45:51;;;;;;;10.52;5.80;;;4.10;99.90;;;;;;5059841;28;20018;-49
2023/02/05 11:48:23;;;;;;;9.68;5.40;;;4.20;99.90;;;;;;5058783;28;20055;-48
2023/02/05 11:50:48;;;;;;;10.23;5.75;;;4.40;99.90;;;;;;5059861;28;20020;-50
2023/02/05 11:53:18;;;;;;;10.68;5.65;;;4.60;99.90;;;;;;5061645;28;20024;-49
2023/02/05 11:55:50;;;;;;;10.68;6.18;;;4.70;99.90;;;;;;5070759;28;20020;-49
2023/02/05 11:58:25;;;;;;;9.93;5.95;;;4.80;99.90;;;;;;5063901;28;20027;-47
2023/02/05 12:00:57;;;;;;;7.40;5.32;;;4.80;99.90;;;;;;5056708;28;20095;-49
2023/02/05 12:03:30;;;;;;;10.23;4.85;;;4.80;99.90;;;;;;5070615;28;20546;-48
2023/02/05 12:06:04;;;;;;;12.55;5.95;;;5.00;99.90;;;;;;5056638;28;20045;-48
2023/02/05 12:08:38;;;;;;;8.88;5.70;;;4.90;99.90;;;;;;5053216;28;20044;-51
2023/02/05 12:11:29;;;;;;;8.93;5.57;;;4.90;99.90;;;;;;5070210;28;20316;-50
2023/02/05 12:14:05;;;;;;;8.70;5.22;;;4.90;99.90;;;;;;5070660;28;20028;-48
2023/02/05 12:17:03;;;;;;;11.30;5.35;;;4.80;99.90;;;;;;5065669;28;20031;-49
2023/02/05 12:19:54;;;;;;;10.10;6.07;;;4.80;99.90;;;;;;5033701;28;20444;-49
2023/02/05 12:22:35;;;;;;;7.95;5.30;;;4.80;99.90;;;;;;5068724;28;20024;-48
2023/02/05 12:25:21;;;;;;;12.30;5.55;;;4.70;99.90;;;;;;5064812;28;20410;-49
2023/02/05 12:28:03;;;;;;;7.50;5.60;;;4.80;99.90;;;;;;5052720;28;20025;-48
2023/02/05 12:30:47;;;;;;;7.28;4.68;;;4.80;99.90;;;;;;5049209;28;20061;-49
2023/02/05 12:33:27;;;;;;;7.40;4.95;;;4.80;99.90;;;;;;5050970;28;20025;-49
2023/02/05 12:36:17;;;;;;;8.02;5.38;;;4.70;99.90;;;;;;5058158;28;20017;-48
2023/02/05 12:38:50;;;;;;;8.73;5.50;;;4.60;99.90;;;;;;5055159;28;20020;-50
2023/02/05 12:41:24;;;;;;;8.75;5.57;;;4.50;99.90;;;;;;5045973;28;20021;-48
2023/02/05 12:43:55;;;;;;;6.72;5.05;;;4.50;99.90;;;;;;5048626;28;20081;-49
2023/02/05 12:46:44;;;;;;;10.45;4.90;;;4.50;99.90;;;;;;5039855;28;20513;-49
2023/02/05 12:49:42;;;;;;;8.40;5.43;;;4.60;99.90;;;;;;5059744;28;20051;-49
2023/02/05 12:52:13;;;;;;;8.40;4.88;;;4.50;99.90;;;;;;5053706;28;20104;-47
2023/02/05 12:54:50;;;;;;;11.65;5.95;;;4.40;99.90;;;;;;5054358;28;20021;-51
2023/02/05 12:57:22;;;;;;;9.60;6.70;;;4.40;99.90;;;;;;5051133;28;20029;-47
2023/02/05 12:59:50;;;;;;;13.43;6.15;;;4.40;99.90;;;;;;5056649;28;20020;-49
2023/02/05 13:02:32;;;;;;;9.10;5.80;;;4.30;99.90;;;;;;5051655;28;20100;-47
2023/02/05 13:05:23;;;;;;;10.65;5.70;;;4.30;99.90;;;;;;5055814;28;20019;-47
2023/02/05 13:08:00;;;;;;;10.50;5.53;;;4.30;99.90;;;;;;5052869;28;20024;-47
2023/02/05 13:10:44;;;;;;;9.98;5.50;;;4.40;99.90;;;;;;5059772;28;20460;-40